Friday, March 6, 2015, 3:56 AM EST
Back to Local

KMPO, Mt Pocono Pocono Mountains

Location: Pocono Summit, PA, United States Lat: 41.133
Local Time: 3:56 AM EST ( 8:56 GMT) Lon: -75.383
Time Zone: US/Eastern Elev: 1915 ft

Show me the last for .
Show Decoded

2015-03-06 02:53 METAR KMPO 060753Z AUTO 32011KT 10SM CLR M16/M20 A3026 RMK AO2 SLP292 T11611200
                 =
2015-03-06 00:53 METAR KMPO 060553Z AUTO 33013G19KT 10SM CLR M15/M19 A3025 RMK AO2 SLP288
                 T11501194 11111 21150 50012 =
2015-03-05 23:53 METAR KMPO 060453Z AUTO 34013G24KT 10SM CLR M14/M18 A3026 RMK AO2 SLP288
                 T11441183 400061144 =
2015-03-05 22:53 METAR KMPO 060353Z AUTO 34009G16KT 10SM FEW014 M14/M18 A3024 RMK AO2 SLP282
                 T11391183 =
2015-03-05 21:53 METAR KMPO 060253Z AUTO 33014G21KT 10SM CLR M13/M18 A3022 RMK AO2 SLP273
                 T11281178 53024 =
2015-03-05 19:53 METAR KMPO 060053Z AUTO 33013G20KT 10SM BKN110 M12/M17 A3015 RMK AO2 SLP247
                 T11171172 =
2015-03-05 18:53 METAR KMPO 052353Z AUTO 32011G19KT 10SM OVC100 M11/M17 A3014 RMK AO2 SLP243
                 60000 T11111172 11094 21111 53028 =
2015-03-05 16:53 METAR KMPO 052153Z AUTO 32010KT 10SM OVC090 M11/M17 A3008 RMK AO2 SLP219
                 T11061172 =
2015-03-05 15:53 METAR KMPO 052053Z AUTO 33011KT 10SM OVC075 M11/M18 A3006 RMK AO2 SLP209 60000
                 T11061178 53002 =
2015-03-05 14:53 METAR KMPO 051953Z AUTO 34008KT 10SM OVC070 M10/M18 A3004 RMK AO2 SNE06 SLP202
                 P0000 T11001183 =
2015-03-05 13:59 METAR KMPO 051859Z AUTO 34009KT 3SM -SN BKN037 OVC047 M11/M16 A3005 RMK AO2
                 P0000 T11061156 =
2015-03-05 13:53 METAR KMPO 051853Z AUTO 33010KT 1 1/2SM -SN BKN030 BKN038 OVC045 M11/M16 A3005
                 RMK AO2 SNB15 SLP207 P0000 T11111161 =
2015-03-05 13:50 METAR KMPO 051850Z AUTO 32010KT 1 1/2SM -SN BKN030 OVC038 M11/M16 A3005 RMK AO2
                 SNB15 P0000 =
2015-03-05 13:27 METAR KMPO 051827Z AUTO 33012G16KT 2SM -SN BKN034 OVC042 M10/M17 A3004 RMK AO2
                 VIS 1 1/2V3 SNB15 P0000 T11001167 =
2015-03-05 12:53 METAR KMPO 051753Z AUTO 33008KT 10SM BKN070 OVC080 M09/M18 A3003 RMK AO2 SLP197
                 60000 T10941178 11056 21100 56004 =
2015-03-05 11:53 METAR KMPO 051653Z AUTO 32009G16KT 10SM OVC065 M09/M17 A3004 RMK AO2 SLP201
                 T10941172 =
2015-03-05 10:53 METAR KMPO 051553Z AUTO 33010KT 10SM OVC080 M09/M17 A3000 RMK AO2 UPB08E15SNE08
                 SLP188 P0000 T10941167 =
2015-03-05 09:59 METAR KMPO 051459Z AUTO 34007KT 4SM -SN OVC030 M10/M14 A3003 RMK AO2 P0000
                 T11001144 =
2015-03-05 09:53 METAR KMPO 051453Z AUTO 35010KT 2 1/2SM -SN BKN026 OVC033 M10/M15 A3004 RMK AO2
                 SLP201 P0000 60000 T11001150 51019 =
2015-03-05 09:35 METAR KMPO 051435Z AUTO 33013G20KT 1 3/4SM -SN OVC026 M10/M16 A3004 RMK AO2
                 P0000 T11001156 =
2015-03-05 09:21 METAR KMPO 051421Z AUTO 34011G18KT 3SM -SN OVC024 M09/M14 A3003 RMK AO2 P0000
                 T10941139 =
2015-03-05 09:09 METAR KMPO 051409Z AUTO 34010KT 1SM -SN VV015 M09/M13 A3003 RMK AO2 P0000
                 T10941128 =
2015-03-05 08:53 METAR KMPO 051353Z AUTO 32012G20KT 1/2SM SN VV012 M09/M12 A3002 RMK AO2 SLP193
                 P0000 T10891122 =
2015-03-05 08:48 METAR KMPO 051348Z AUTO 33013G20KT 1/2SM SN VV013 M09/M12 A3002 RMK AO2 P0000 =
2015-03-05 08:28 METAR KMPO 051328Z AUTO 35012G20KT 3/4SM -SN VV016 M08/M12 A3002 RMK AO2 P0000
                 T10831117 =
2015-03-05 08:19 METAR KMPO 051319Z AUTO 34010G19KT 3/4SM -SN VV014 M08/M11 A3001 RMK AO2 P0000
                 T10781111 =
2015-03-05 07:53 METAR KMPO 051253Z AUTO 33012G20KT 3/4SM -SN VV018 M07/M11 A2998 RMK AO2 SLP177
                 P0000 T10721106 =
2015-03-05 07:39 METAR KMPO 051239Z AUTO 33011G18KT 1 1/4SM -SN BKN016 OVC028 M07/M10 A2997 RMK
                 AO2 P0000 T10671100 =
2015-03-05 07:13 METAR KMPO 051213Z AUTO 34010G16KT 1 1/2SM -SN BKN014 BKN021 OVC070 M06/M09
                 A2995 RMK AO2 P0000 T10611089 =
2015-03-05 06:53 METAR KMPO 051153Z AUTO 34014G20KT 2 1/2SM -SN BKN017 BKN023 OVC070 M06/M09
                 A2994 RMK AO2 VIS 1 3/4V3 UPB00E05B24E27SNB27 SLP160 P0000 60002 70008 T10561089
                 10000 21056 53012 =
2015-03-05 06:51 METAR KMPO 051151Z AUTO 34015G23KT 2SM -SN BKN017 BKN023 OVC070 M06/M09 A2994
                 RMK AO2 UPB00E05B24E27SNB27 P0000 =
2015-03-05 06:32 METAR KMPO 051132Z AUTO 33012G22KT 5SM -SN BKN018 BKN060 OVC085 M04/M08 A2994
                 RMK AO2 UPB00E05B24E27SNB27 P0000 T10441083 =
2015-03-05 05:53 METAR KMPO 051053Z AUTO 33014G22KT 9SM FEW017 FEW050 OVC075 M04/M08 A2990 RMK
                 AO2 UPB37E40SNE37 SLP144 P0000 T10391083 =
2015-03-05 05:01 METAR KMPO 051001Z AUTO 32017G25KT 3SM -SN OVC047 M03/M07 A2989 RMK AO2 P0000
                 T10281067 =
2015-03-05 04:53 METAR KMPO 050953Z AUTO 31012G20KT 2 1/2SM -SN OVC042 M03/M07 A2990 RMK AO2
                 UPE00SNB00 SLP145 P0000 T10281067 =
2015-03-05 04:48 METAR KMPO 050948Z AUTO 31014G19KT 2 1/2SM -SN OVC034 M03/M07 A2989 RMK AO2
                 UPE00SNB00 P0000 =
2015-03-05 04:28 METAR KMPO 050928Z AUTO 31010G20KT 2SM -SN OVC026 M03/M07 A2989 RMK AO2
                 UPE00SNB00 P0000 T10281067 =
2015-03-05 04:21 METAR KMPO 050921Z AUTO 32012G21KT 2 1/2SM -SN OVC030 M02/M07 A2988 RMK AO2
                 UPE00SNB00 P0000 T10221067 =

Support USWX by starting your Amazon purchase here.